Time;durP1;ratioP1;P1;durP2;ratioP2;P2;SDS_P1;SDS_P2;PMS_P1;PMS_P2;Temp;Humidity;BMP_temperature;BMP_pressure;BME280_temperature;BME280_humidity;BME280_pressure;Samples;Min_cycle;Max_cycle;Signal;HPM_P1;HPM_P2
2023/12/24 00:02:17;;;;;;;1.17;0.70;;;;;;;21.22;40.95;100337.59;5024827;28;20036;-68
2023/12/24 00:04:42;;;;;;;1.63;0.90;;;;;;;21.18;40.85;100320.44;5078637;28;20047;-68
2023/12/24 00:07:08;;;;;;;2.22;0.75;;;;;;;21.18;41.06;100320.44;5026181;28;20036;-67
2023/12/24 00:09:33;;;;;;;0.60;0.60;;;;;;;21.18;41.06;100323.09;5082719;28;20056;-67
2023/12/24 00:11:59;;;;;;;2.85;0.80;;;;;;;21.17;40.70;100327.56;5065380;28;20048;-68
2023/12/24 00:14:24;;;;;;;0.60;0.60;;;;;;;21.17;40.71;100319.63;5081703;28;20059;-68
2023/12/24 00:16:50;;;;;;;3.85;1.08;;;;;;;21.18;40.96;100310.66;5026733;28;20050;-68
2023/12/24 00:19:15;;;;;;;1.33;0.90;;;;;;;21.15;40.84;100316.38;5082266;28;20036;-66
2023/12/24 00:21:42;;;;;;;2.92;1.38;;;;;;;21.14;41.03;100314.72;5025384;28;20075;-67
2023/12/24 00:24:07;;;;;;;2.17;0.80;;;;;;;21.13;41.09;100318.41;5083344;28;20032;-67
2023/12/24 00:26:33;;;;;;;2.30;1.25;;;;;;;21.09;40.99;100307.41;5028196;28;22194;-68
2023/12/24 00:28:58;;;;;;;1.00;0.60;;;;;;;21.13;40.82;100315.75;5084296;28;20480;-67
2023/12/24 00:31:24;;;;;;;1.27;0.82;;;;;;;20.98;40.91;100275.41;5027664;28;21225;-67
2023/12/24 00:33:49;;;;;;;0.68;0.60;;;;;;;21.08;40.89;100312.91;5082957;28;20049;-67
2023/12/24 00:36:16;;;;;;;1.80;0.75;;;;;;;21.08;40.88;100308.41;5039582;28;20048;-67
2023/12/24 00:38:42;;;;;;;1.65;0.65;;;;;;;21.10;40.86;100310.88;5072303;28;20122;-67
2023/12/24 00:41:07;;;;;;;1.65;0.95;;;;;;;21.08;41.17;100318.19;5061405;28;20736;-66
2023/12/24 00:43:33;;;;;;;1.17;0.90;;;;;;;21.06;41.24;100302.50;5052019;28;20036;-68
2023/12/24 00:45:58;;;;;;;1.35;0.55;;;;;;;21.08;40.97;100302.31;5085117;28;20094;-68
2023/12/24 00:48:25;;;;;;;1.40;0.90;;;;;;;21.07;40.87;100296.19;5026790;28;20032;-67
2023/12/24 00:50:51;;;;;;;2.55;1.00;;;;;;;21.05;41.05;100303.53;5084668;28;20044;-68
2023/12/24 00:53:17;;;;;;;1.00;0.77;;;;;;;21.08;40.97;100292.53;5027192;28;20047;-67
2023/12/24 00:55:42;;;;;;;1.85;0.90;;;;;;;21.07;40.93;100290.91;5082309;28;20455;-68
2023/12/24 00:58:08;;;;;;;1.08;0.70;;;;;;;21.05;41.08;100290.28;5023194;28;20036;-68
2023/12/24 01:00:33;;;;;;;1.90;1.05;;;;;;;21.06;41.00;100283.16;5082609;28;20052;-67
2023/12/24 01:02:59;;;;;;;0.95;0.77;;;;;;;21.07;41.29;100296.19;5027694;28;20051;-69
2023/12/24 01:05:24;;;;;;;1.67;1.05;;;;;;;21.07;40.99;100303.31;5082846;28;20043;-68
2023/12/24 01:07:50;;;;;;;1.45;0.70;;;;;;;21.05;40.86;100294.78;5029205;28;20065;-67
2023/12/24 01:10:15;;;;;;;2.47;1.13;;;;;;;21.04;41.07;100295.78;5078510;28;20078;-67
2023/12/24 01:12:43;;;;;;;1.73;0.80;;;;;;;21.05;41.09;100295.59;5022678;28;20044;-68
2023/12/24 01:15:09;;;;;;;2.03;0.88;;;;;;;21.04;40.92;100293.97;5081085;28;20032;-67
2023/12/24 01:17:35;;;;;;;1.85;0.98;;;;;;;21.05;41.04;100286.84;5027104;28;20360;-68
2023/12/24 01:20:01;;;;;;;0.80;0.60;;;;;;;21.04;41.17;100272.78;5081260;28;20043;-67
2023/12/24 01:22:27;;;;;;;2.05;1.20;;;;;;;21.04;40.91;100269.31;5061476;28;20040;-68
2023/12/24 01:24:52;;;;;;;2.72;0.77;;;;;;;21.01;41.19;100277.66;5081694;28;20043;-67
2023/12/24 01:27:18;;;;;;;2.00;0.90;;;;;;;21.00;41.18;100276.81;5025032;28;21527;-67
2023/12/24 01:29:43;;;;;;;0.50;0.50;;;;;;;21.02;41.17;100266.06;5078875;28;20610;-67
2023/12/24 01:32:09;;;;;;;2.00;0.75;;;;;;;21.01;41.40;100272.38;5027881;28;20047;-67
2023/12/24 01:34:35;;;;;;;2.80;1.08;;;;;;;21.01;41.01;100270.53;5094886;27;20028;-67
2023/12/24 01:37:00;;;;;;;1.00;0.73;;;;;;;21.02;41.06;100252.81;5024152;28;20039;-68
2023/12/24 01:39:26;;;;;;;1.58;0.73;;;;;;;21.01;40.96;100259.94;5077883;28;20052;-68
2023/12/24 01:41:52;;;;;;;1.10;0.82;;;;;;;20.96;41.04;100248.31;5025521;28;20051;-68
2023/12/24 01:44:17;;;;;;;0.90;0.70;;;;;;;21.00;41.27;100255.66;5082154;28;20059;-67
2023/12/24 01:46:43;;;;;;;1.65;0.77;;;;;;;21.00;41.03;100268.06;5025433;28;20048;-67
2023/12/24 01:49:13;;;;;;;2.63;1.00;;;;;;;20.97;41.09;100260.53;5081811;28;20040;-67
2023/12/24 01:51:39;;;;;;;;;;;;;;;20.96;41.15;100259.72;5021381;28;21058;-67
2023/12/24 01:54:05;;;;;;;1.00;0.60;;;;;;;20.96;41.13;100259.72;5081101;28;19920;-67
2023/12/24 01:56:31;;;;;;;1.80;0.98;;;;;;;20.94;41.29;100269.69;5025167;28;20154;-67
2023/12/24 01:58:58;;;;;;;1.67;0.68;;;;;;;20.97;41.07;100264.00;5081411;28;20042;-66
2023/12/24 02:01:24;;;;;;;1.30;0.88;;;;;;;20.95;41.29;100257.28;5029027;28;20035;-68
2023/12/24 02:03:49;;;;;;;1.48;0.68;;;;;;;20.91;41.09;100251.56;5069940;28;20225;-67
2023/12/24 02:06:16;;;;;;;1.85;0.85;;;;;;;20.97;41.32;100249.94;5061019;28;20109;-67
2023/12/24 02:08:42;;;;;;;1.95;0.82;;;;;;;20.97;41.10;100249.94;5059975;27;20139;-66
2023/12/24 02:11:08;;;;;;;2.83;1.25;;;;;;;20.95;41.23;100247.50;5079318;28;20029;-67
2023/12/24 02:13:34;;;;;;;1.77;1.08;;;;;;;20.95;41.08;100252.78;5028921;28;20444;-67
2023/12/24 02:16:02;;;;;;;0.75;0.73;;;;;;;20.92;41.15;100247.91;5080868;28;20075;-68
2023/12/24 02:18:28;;;;;;;0.57;0.57;;;;;;;20.92;41.17;100239.97;5023557;28;20040;-66
2023/12/24 02:21:01;;;;;;;1.83;0.82;;;;;;;20.92;41.10;100236.50;5080226;28;20032;-66
2023/12/24 02:23:28;;;;;;;1.92;0.95;;;;;;;20.88;41.18;100219.41;5022975;28;20028;-67
2023/12/24 02:26:05;;;;;;;1.80;0.70;;;;;;;20.90;41.23;100217.38;5082397;28;20124;-66
2023/12/24 02:28:39;;;;;;;3.03;1.20;;;;;;;20.88;41.26;100228.16;5024112;28;20388;-67
2023/12/24 02:31:09;;;;;;;1.52;0.80;;;;;;;20.88;41.15;100204.34;5056946;28;20096;-67
2023/12/24 02:33:40;;;;;;;1.85;1.02;;;;;;;20.91;41.24;100201.28;5080521;28;20032;-66
2023/12/24 02:36:09;;;;;;;1.45;1.00;;;;;;;20.88;41.26;100212.28;5037233;28;20052;-66
2023/12/24 02:38:34;;;;;;;1.88;1.00;;;;;;;20.89;41.21;100191.91;5076274;28;20035;-66
2023/12/24 02:41:01;;;;;;;0.85;0.60;;;;;;;20.86;41.45;100195.78;5079838;28;20668;-68
2023/12/24 02:43:26;;;;;;;1.35;0.82;;;;;;;20.86;41.27;100187.03;5023076;28;20645;-66
2023/12/24 02:45:53;;;;;;;1.95;0.93;;;;;;;20.86;41.31;100201.09;5078181;28;20188;-67
2023/12/24 02:48:19;;;;;;;1.63;0.85;;;;;;;20.87;41.40;100194.78;5021472;28;20765;-67
2023/12/24 02:50:44;;;;;;;1.20;0.73;;;;;;;20.79;41.24;100179.88;5076712;28;20716;-66
2023/12/24 02:53:10;;;;;;;1.95;0.93;;;;;;;20.87;41.41;100170.97;5026278;28;20114;-65
2023/12/24 02:55:35;;;;;;;1.67;0.70;;;;;;;20.84;41.42;100168.72;5081339;28;20457;-67
2023/12/24 02:58:01;;;;;;;1.55;0.88;;;;;;;20.74;41.41;100166.44;5024048;28;20870;-66
2023/12/24 03:00:27;;;;;;;1.40;0.65;;;;;;;20.75;41.35;100160.16;5080081;28;20135;-66
2023/12/24 03:02:52;;;;;;;1.58;0.70;;;;;;;20.82;41.33;100170.72;5042699;28;20044;-66
2023/12/24 03:05:18;;;;;;;0.65;0.52;;;;;;;20.84;41.21;100179.31;5094329;27;20032;-67
2023/12/24 03:07:43;;;;;;;1.65;1.00;;;;;;;20.83;41.35;100167.09;5023963;28;20068;-66
2023/12/24 03:10:09;;;;;;;0.90;0.85;;;;;;;20.83;41.20;100163.63;5076147;28;20044;-67
2023/12/24 03:12:34;;;;;;;1.67;0.85;;;;;;;20.85;41.41;100158.94;5027983;28;20104;-66
2023/12/24 03:15:00;;;;;;;2.65;1.00;;;;;;;20.84;41.32;100167.91;5075729;28;20059;-67
2023/12/24 03:17:26;;;;;;;1.00;0.70;;;;;;;20.84;41.28;100152.03;5024229;28;20040;-66
2023/12/24 03:19:52;;;;;;;1.42;0.55;;;;;;;20.83;41.21;100164.44;5075468;28;20051;-66
2023/12/24 03:22:17;;;;;;;1.63;1.02;;;;;;;20.84;41.37;100166.06;5028076;28;20036;-67
2023/12/24 03:24:43;;;;;;;0.82;0.60;;;;;;;20.81;41.35;100161.97;5079392;28;20032;-66
2023/12/24 03:27:08;;;;;;;2.05;0.80;;;;;;;20.85;41.37;100156.31;5024616;28;20036;-67
2023/12/24 03:29:34;;;;;;;1.15;0.80;;;;;;;20.81;41.41;100156.69;5079857;28;21944;-66
2023/12/24 03:31:59;;;;;;;0.63;0.50;;;;;;;20.85;41.28;100151.00;5024174;28;20083;-67
2023/12/24 03:34:25;;;;;;;0.98;0.55;;;;;;;20.82;41.31;100128.38;5062295;28;20066;-67
2023/12/24 03:36:50;;;;;;;1.33;0.95;;;;;;;20.76;41.26;100127.38;5076457;28;20055;-67
2023/12/24 03:39:16;;;;;;;0.82;0.45;;;;;;;20.82;41.37;100136.31;5022717;28;20048;-67
2023/12/24 03:41:42;;;;;;;1.75;0.70;;;;;;;20.83;41.29;100129.22;5079180;28;20093;-67
2023/12/24 03:44:07;;;;;;;1.02;0.57;;;;;;;20.84;41.25;100136.97;5023695;28;20412;-66
2023/12/24 03:46:33;;;;;;;1.55;0.85;;;;;;;20.76;41.30;100126.56;5078939;28;20090;-67
2023/12/24 03:48:59;;;;;;;1.45;0.80;;;;;;;20.80;41.42;100136.53;5021812;28;26481;-66
2023/12/24 03:51:24;;;;;;;1.52;0.85;;;;;;;20.84;41.44;100136.97;5080108;28;20034;-67
2023/12/24 03:53:50;;;;;;;1.10;0.68;;;;;;;20.84;41.52;100131.66;5021043;28;20202;-67
2023/12/24 03:56:16;;;;;;;0.80;0.40;;;;;;;20.79;41.54;100112.91;5079326;28;20036;-67
2023/12/24 03:58:42;;;;;;;2.03;0.65;;;;;;;20.81;41.34;100108.22;5023635;28;28218;-67
2023/12/24 04:01:10;;;;;;;0.98;0.88;;;;;;;20.83;41.29;100113.34;5079839;28;20387;-66
2023/12/24 04:03:36;;;;;;;1.48;0.88;;;;;;;20.80;41.45;100107.41;5033812;28;20704;-67
2023/12/24 04:06:15;;;;;;;1.05;0.55;;;;;;;20.80;41.44;100106.59;5067843;28;20025;-66
2023/12/24 04:08:41;;;;;;;1.40;0.70;;;;;;;20.79;41.14;100105.78;5039469;28;20144;-67
2023/12/24 04:11:15;;;;;;;0.63;0.57;;;;;;;20.80;41.60;100103.97;5080235;28;20024;-67
2023/12/24 04:13:41;;;;;;;0.52;0.50;;;;;;;20.80;41.42;100102.13;5017459;28;20746;-67
2023/12/24 04:16:07;;;;;;;1.08;0.63;;;;;;;20.82;41.44;100107.22;5089326;28;20081;-66
2023/12/24 04:18:33;;;;;;;1.02;0.63;;;;;;;20.82;41.26;100094.00;5042863;28;20444;-67
2023/12/24 04:20:59;;;;;;;0.80;0.52;;;;;;;20.79;41.54;100089.09;5065067;28;20054;-67
2023/12/24 04:23:25;;;;;;;0.70;0.57;;;;;;;20.81;41.45;100081.78;5063631;28;20460;-66
2023/12/24 04:25:50;;;;;;;1.00;0.65;;;;;;;20.78;41.38;100084.84;5039552;28;20036;-67
2023/12/24 04:28:16;;;;;;;2.50;0.70;;;;;;;20.80;41.30;100083.59;5095213;28;20655;-67
2023/12/24 04:30:42;;;;;;;1.20;0.75;;;;;;;20.76;41.48;100084.22;5021967;28;20094;-66
2023/12/24 04:33:10;;;;;;;0.40;0.40;;;;;;;20.79;41.48;100097.03;5078064;28;20044;-65
2023/12/24 04:35:36;;;;;;;1.25;0.85;;;;;;;20.80;41.34;100080.97;5022863;28;20035;-67
2023/12/24 04:38:02;;;;;;;1.52;0.77;;;;;;;20.74;41.42;100076.50;5079392;28;20094;-67
2023/12/24 04:40:28;;;;;;;0.43;0.40;;;;;;;20.78;41.52;100077.72;5005204;28;20033;-67
2023/12/24 04:42:53;;;;;;;0.43;0.40;;;;;;;20.78;41.63;100088.28;5092499;28;20032;-66
2023/12/24 04:45:19;;;;;;;0.60;0.60;;;;;;;20.79;41.48;100094.41;5022980;28;20055;-66
2023/12/24 04:47:45;;;;;;;1.02;0.65;;;;;;;20.80;41.51;100077.50;5076871;28;20055;-67
2023/12/24 04:50:10;;;;;;;0.65;0.52;;;;;;;20.80;41.31;100074.84;5022905;28;20085;-67
2023/12/24 04:52:37;;;;;;;1.10;0.50;;;;;;;20.79;41.08;100068.75;5079614;28;20031;-67
2023/12/24 04:55:04;;;;;;;2.47;0.77;;;;;;;20.79;41.50;100071.41;5024778;28;20070;-67
2023/12/24 04:57:31;;;;;;;1.45;0.40;;;;;;;20.72;41.49;100057.38;5097272;28;20052;-67
2023/12/24 04:59:57;;;;;;;1.48;0.52;;;;;;;20.78;41.40;100072.41;5025983;28;20032;-66
2023/12/24 05:02:22;;;;;;;0.52;0.52;;;;;;;20.70;41.52;100053.31;5081767;28;20105;-66
2023/12/24 05:04:49;;;;;;;0.38;0.38;;;;;;;20.74;41.47;100070.38;5025182;28;20045;-66
2023/12/24 05:07:16;;;;;;;0.75;0.60;;;;;;;20.78;41.53;100072.41;5082889;28;20097;-68
2023/12/24 05:09:42;;;;;;;0.60;0.50;;;;;;;20.81;41.43;100065.91;5022193;28;20448;-67
2023/12/24 05:12:08;;;;;;;0.63;0.35;;;;;;;20.74;41.55;100057.97;5082541;28;20086;-66
2023/12/24 05:14:35;;;;;;;0.90;0.35;;;;;;;20.78;41.51;100053.09;5027207;28;20071;-68
2023/12/24 05:17:02;;;;;;;1.92;0.82;;;;;;;20.71;41.45;100041.69;5082175;28;20115;-67
2023/12/24 05:19:28;;;;;;;0.63;0.40;;;;;;;20.78;41.54;100066.31;5007295;28;20929;-67
2023/12/24 05:21:54;;;;;;;1.52;0.73;;;;;;;20.77;41.33;100065.50;5082436;28;20512;-66
2023/12/24 05:24:19;;;;;;;0.70;0.55;;;;;;;20.77;41.50;100068.16;5020772;28;20040;-67
2023/12/24 05:26:45;;;;;;;0.93;0.50;;;;;;;20.77;41.53;100065.50;5084162;28;20528;-69
2023/12/24 05:29:10;;;;;;;0.45;0.32;;;;;;;20.77;41.59;100056.75;5038167;28;20048;-66
2023/12/24 05:31:40;;;;;;;0.57;0.43;;;;;;;20.76;41.63;100065.72;5071818;28;20040;-66
2023/12/24 05:34:06;;;;;;;0.73;0.30;;;;;;;20.72;41.51;100062.66;5052663;28;20036;-67
2023/12/24 05:36:33;;;;;;;1.25;0.57;;;;;;;20.75;41.65;100067.53;5061380;28;20067;-66
2023/12/24 05:38:59;;;;;;;0.50;0.40;;;;;;;20.75;41.63;100070.19;5071110;28;20056;-67
2023/12/24 05:41:24;;;;;;;0.43;0.35;;;;;;;20.76;41.41;100057.78;5042396;28;20112;-67
2023/12/24 05:43:50;;;;;;;0.77;0.70;;;;;;;20.75;41.40;100058.78;5083168;28;20040;-65
2023/12/24 05:46:16;;;;;;;0.43;0.43;;;;;;;20.74;41.39;100065.91;5025964;28;20859;-67
2023/12/24 05:48:42;;;;;;;0.88;0.57;;;;;;;20.74;41.49;100063.25;5063407;28;20059;-66
2023/12/24 05:51:08;;;;;;;0.32;0.30;;;;;;;20.75;41.71;100058.78;5081370;28;20069;-66
2023/12/24 05:53:34;;;;;;;0.68;0.45;;;;;;;20.74;41.69;100063.25;5027242;28;20044;-66
2023/12/24 05:55:59;;;;;;;2.28;0.60;;;;;;;20.75;41.58;100058.78;5080228;28;20043;-67
2023/12/24 05:58:25;;;;;;;0.70;0.57;;;;;;;20.71;41.65;100058.38;5027921;28;20063;-68
2023/12/24 06:00:52;;;;;;;0.65;0.20;;;;;;;20.75;41.52;100049.03;5080294;28;20463;-67
2023/12/24 06:03:18;;;;;;;0.60;0.60;;;;;;;20.74;41.57;100047.38;5028825;28;20357;-66
2023/12/24 06:05:43;;;;;;;0.40;0.30;;;;;;;20.73;41.49;100037.81;5080244;28;20127;-67
2023/12/24 06:08:09;;;;;;;0.43;0.40;;;;;;;20.75;41.56;100038.44;5026558;28;20492;-67
2023/12/24 06:10:34;;;;;;;0.45;0.40;;;;;;;20.75;41.34;100038.44;5082051;28;20043;-67
2023/12/24 06:13:00;;;;;;;0.28;0.28;;;;;;;20.69;41.56;100030.50;5025789;28;20047;-67
2023/12/24 06:15:26;;;;;;;0.55;0.55;;;;;;;20.74;41.56;100034.16;5079400;28;20058;-67
2023/12/24 06:17:51;;;;;;;0.63;0.20;;;;;;;20.72;41.70;100024.81;5021410;28;20879;-67
2023/12/24 06:20:17;;;;;;;0.70;0.32;;;;;;;20.75;41.62;100037.63;5078659;28;20322;-67
2023/12/24 06:22:42;;;;;;;0.47;0.47;;;;;;;20.73;41.43;100037.00;5022796;28;20078;-67
2023/12/24 06:25:08;;;;;;;0.38;0.30;;;;;;;20.73;41.54;100042.31;5078949;28;20050;-68
2023/12/24 06:27:34;;;;;;;0.32;0.25;;;;;;;20.68;41.59;100029.69;5036278;28;20066;-68
2023/12/24 06:30:00;;;;;;;0.65;0.50;;;;;;;20.73;41.77;100026.44;5068087;28;20076;-66
2023/12/24 06:32:25;;;;;;;1.25;0.70;;;;;;;20.78;41.46;100026.63;5061396;28;20064;-67
2023/12/24 06:34:51;;;;;;;0.35;0.35;;;;;;;20.74;41.50;100025.41;5045952;28;20457;-66
2023/12/24 06:37:16;;;;;;;0.88;0.38;;;;;;;20.75;41.46;100019.09;5080243;28;20040;-67
2023/12/24 06:39:42;;;;;;;1.05;0.30;;;;;;;20.75;41.48;100003.22;5022658;28;20105;-66
2023/12/24 06:42:07;;;;;;;0.85;0.68;;;;;;;20.74;41.53;100006.91;5082983;28;20028;-67
2023/12/24 06:44:33;;;;;;;0.80;0.50;;;;;;;20.72;41.75;100012.38;5023290;28;20089;-67
2023/12/24 06:46:59;;;;;;;1.42;0.55;;;;;;;20.57;41.49;99989.81;5080448;28;20464;-67
2023/12/24 06:49:24;;;;;;;0.70;0.55;;;;;;;20.76;41.61;100018.09;5022582;28;20059;-67
2023/12/24 06:51:50;;;;;;;1.45;0.43;;;;;;;20.66;41.58;100007.13;5082094;28;20039;-68
2023/12/24 06:54:15;;;;;;;0.32;0.20;;;;;;;20.69;41.73;100025.22;5008204;28;20036;-66
2023/12/24 06:56:41;;;;;;;0.70;0.40;;;;;;;20.74;41.87;100033.34;5064174;28;20055;-68
2023/12/24 06:59:07;;;;;;;2.10;0.68;;;;;;;20.75;41.41;100019.09;5080992;28;20047;-66
2023/12/24 07:01:33;;;;;;;0.82;0.40;;;;;;;20.75;41.75;100013.81;5023704;28;20051;-67
2023/12/24 07:03:58;;;;;;;0.40;0.40;;;;;;;20.76;41.75;100002.19;5079298;28;20035;-67
2023/12/24 07:06:24;;;;;;;0.85;0.38;;;;;;;20.74;41.49;100001.59;5023154;28;20067;-68
2023/12/24 07:08:49;;;;;;;0.25;0.22;;;;;;;20.72;41.75;100009.75;5078295;28;20121;-68
2023/12/24 07:11:15;;;;;;;1.08;0.20;;;;;;;20.75;41.52;99996.09;5023583;28;22309;-67
2023/12/24 07:13:40;;;;;;;0.30;0.30;;;;;;;20.72;41.62;100014.22;5081275;28;20109;-67
2023/12/24 07:16:07;;;;;;;0.90;0.52;;;;;;;20.66;41.55;100005.28;5019157;28;21557;-68
2023/12/24 07:18:33;;;;;;;0.80;0.45;;;;;;;20.73;41.79;100014.00;5081180;28;20121;-67
2023/12/24 07:20:58;;;;;;;0.45;0.45;;;;;;;20.76;41.87;100010.16;5031867;28;20039;-67
2023/12/24 07:23:24;;;;;;;0.68;0.57;;;;;;;20.74;41.66;100004.25;5071955;28;20048;-68
2023/12/24 07:25:49;;;;;;;1.35;0.85;;;;;;;20.74;41.71;99988.38;5052261;28;20051;-67
2023/12/24 07:28:15;;;;;;;0.77;0.40;;;;;;;20.73;41.77;99986.75;5048394;28;20056;-67
2023/12/24 07:30:40;;;;;;;0.77;0.47;;;;;;;20.75;41.65;99998.75;5078514;28;20040;-67
2023/12/24 07:33:06;;;;;;;0.65;0.35;;;;;;;20.72;41.70;99995.72;5026705;28;20523;-67
2023/12/24 07:35:31;;;;;;;0.43;0.43;;;;;;;20.72;41.87;100015.03;5079245;28;20438;-67
2023/12/24 07:37:58;;;;;;;0.30;0.25;;;;;;;20.71;41.88;100017.88;5017190;28;20296;-67
2023/12/24 07:40:23;;;;;;;0.47;0.47;;;;;;;20.72;41.72;100011.56;5079089;28;20368;-67
2023/12/24 07:42:49;;;;;;;0.95;0.60;;;;;;;20.75;41.91;100013.81;5023936;28;20063;-67
2023/12/24 07:45:15;;;;;;;0.30;0.30;;;;;;;20.75;41.93;100019.09;5077151;28;20095;-67
2023/12/24 07:47:40;;;;;;;0.80;0.57;;;;;;;20.74;41.89;100006.91;5021821;28;20135;-67
2023/12/24 07:50:07;;;;;;;1.00;0.73;;;;;;;20.70;41.68;100003.03;5073535;28;20731;-68
2023/12/24 07:52:33;;;;;;;0.40;0.35;;;;;;;20.75;41.84;100008.53;5022719;28;20105;-67
2023/12/24 07:54:59;;;;;;;0.88;0.40;;;;;;;20.77;41.60;100001.19;5076050;28;20032;-67
2023/12/24 07:57:24;;;;;;;0.30;0.30;;;;;;;20.73;41.82;99987.56;5022021;28;20118;-67
2023/12/24 07:59:50;;;;;;;1.08;0.57;;;;;;;20.72;41.75;99998.34;5060449;28;20043;-67
2023/12/24 08:02:15;;;;;;;0.30;0.30;;;;;;;20.79;41.81;99997.31;5078560;28;20046;-67
2023/12/24 08:04:43;;;;;;;0.73;0.52;;;;;;;20.71;41.73;99994.88;5051353;28;20108;-67
2023/12/24 08:07:09;;;;;;;0.85;0.40;;;;;;;20.76;41.85;99988.97;5054326;28;20051;-67
2023/12/24 08:09:34;;;;;;;1.55;0.60;;;;;;;20.77;41.61;99993.25;5066120;28;20051;-66
2023/12/24 08:12:00;;;;;;;0.50;0.30;;;;;;;20.76;41.95;99994.25;5032798;28;20116;-67
2023/12/24 08:14:25;;;;;;;1.17;0.65;;;;;;;20.75;41.94;99984.69;5078085;28;20051;-66
2023/12/24 08:16:51;;;;;;;1.02;0.80;;;;;;;20.76;41.92;99978.41;5020497;28;20047;-67
2023/12/24 08:19:16;;;;;;;1.02;0.43;;;;;;;20.76;41.67;99979.19;5079252;28;20043;-66
2023/12/24 08:21:42;;;;;;;0.50;0.43;;;;;;;20.78;41.84;99981.66;5021434;28;20052;-67
2023/12/24 08:24:08;;;;;;;1.75;0.60;;;;;;;20.78;41.76;99979.81;5076448;28;20453;-69
2023/12/24 08:26:34;;;;;;;0.60;0.60;;;;;;;20.78;41.91;99971.06;5022021;28;20082;-67
2023/12/24 08:28:59;;;;;;;1.15;0.40;;;;;;;20.77;41.66;99990.59;5079900;28;20046;-67
2023/12/24 08:31:25;;;;;;;0.73;0.45;;;;;;;20.77;41.97;99990.59;5023751;28;20051;-67
2023/12/24 08:33:50;;;;;;;1.65;0.70;;;;;;;20.77;41.79;99977.38;5078841;28;20040;-67
2023/12/24 08:36:16;;;;;;;2.90;0.80;;;;;;;20.86;41.88;99988.56;5029370;28;20086;-67
2023/12/24 08:38:42;;;;;;;0.85;0.30;;;;;;;21.24;41.01;99989.50;5080732;28;20048;-66
2023/12/24 08:41:08;;;;;;;0.98;0.65;;;;;;;21.34;40.75;99978.47;5027706;28;20455;-66
2023/12/24 08:43:33;;;;;;;1.85;0.63;;;;;;;21.74;40.49;99967.69;5080238;28;20410;-62
2023/12/24 08:46:00;;;;;;;1.25;0.70;;;;;;;21.69;40.22;99958.53;5025538;28;20040;-64
2023/12/24 08:48:26;;;;;;;2.63;0.68;;;;;;;21.77;40.40;99959.31;5079834;28;20040;-63
2023/12/24 08:50:52;;;;;;;1.10;0.57;;;;;;;21.76;40.30;99947.09;5024052;28;21091;-62
2023/12/24 08:53:17;;;;;;;0.98;0.63;;;;;;;21.59;40.53;99942.28;5078525;28;20039;-63
2023/12/24 08:55:43;;;;;;;1.20;0.47;;;;;;;21.67;40.40;99949.16;5028259;28;20499;-62
2023/12/24 08:58:08;;;;;;;1.80;0.75;;;;;;;21.68;40.64;99964.03;5078593;28;20048;-63
2023/12/24 09:00:35;;;;;;;1.02;0.75;;;;;;;21.62;40.52;99973.66;5027577;28;20137;-64
2023/12/24 09:03:00;;;;;;;1.27;0.60;;;;;;;21.62;40.85;99973.66;5063527;28;20032;-64
2023/12/24 09:05:26;;;;;;;1.52;0.88;;;;;;;21.61;40.61;99982.63;5081078;28;20553;-64
2023/12/24 09:07:51;;;;;;;0.88;0.60;;;;;;;21.57;41.05;99970.84;5028302;28;20064;-64
2023/12/24 09:10:20;;;;;;;1.25;0.70;;;;;;;21.60;40.91;99975.72;5085416;28;20032;-64
2023/12/24 09:12:45;;;;;;;1.00;0.88;;;;;;;21.60;40.96;99982.84;5023049;28;20064;-64
2023/12/24 09:15:11;;;;;;;1.83;0.80;;;;;;;21.56;40.67;99971.06;5084050;28;20043;-64
2023/12/24 09:17:36;;;;;;;1.27;1.15;;;;;;;21.59;41.08;99960.84;5025451;28;21391;-64
2023/12/24 09:20:02;;;;;;;1.30;0.70;;;;;;;21.55;41.12;99957.00;5083662;28;20040;-64
2023/12/24 09:22:28;;;;;;;1.20;0.75;;;;;;;21.50;41.12;99954.16;5021331;28;20052;-63
2023/12/24 09:24:53;;;;;;;2.45;1.98;;;;;;;21.47;41.27;99946.63;5081314;28;20028;-63
2023/12/24 09:27:19;;;;;;;0.90;0.50;;;;;;;21.46;41.26;99952.94;5039025;28;20043;-63
2023/12/24 09:29:44;;;;;;;2.10;0.65;;;;;;;21.45;41.01;99956.63;5062878;28;20045;-62
2023/12/24 09:32:10;;;;;;;1.63;0.80;;;;;;;21.46;41.29;99968.84;5063698;28;20620;-63
2023/12/24 09:34:35;;;;;;;0.80;0.73;;;;;;;21.44;40.93;99962.94;5040550;28;20062;-62
2023/12/24 09:37:01;;;;;;;2.38;1.05;;;;;;;21.45;41.22;99953.16;5079709;28;20044;-63
2023/12/24 09:39:26;;;;;;;1.00;0.70;;;;;;;21.42;41.29;99939.31;5026052;28;20052;-63
2023/12/24 09:41:53;;;;;;;1.48;0.50;;;;;;;21.41;41.45;99950.13;5079124;28;20053;-63
2023/12/24 09:44:19;;;;;;;2.90;0.90;;;;;;;21.41;41.08;99953.59;5042712;28;20032;-64
2023/12/24 09:46:44;;;;;;;1.27;0.77;;;;;;;21.39;41.46;99945.06;5080810;28;20043;-62
2023/12/24 09:49:10;;;;;;;1.15;0.70;;;;;;;21.40;41.23;99937.91;5023434;28;20300;-62
2023/12/24 09:51:36;;;;;;;3.15;1.02;;;;;;;21.35;41.10;99954.41;5079134;28;20043;-63
2023/12/24 09:54:02;;;;;;;1.20;0.65;;;;;;;21.39;41.02;99954.81;5027375;28;20039;-63
2023/12/24 09:56:27;;;;;;;0.90;0.70;;;;;;;21.35;41.39;99961.53;5082263;28;20051;-63
2023/12/24 09:58:53;;;;;;;1.30;0.93;;;;;;;21.34;41.36;99942.19;5028809;28;20036;-63
2023/12/24 10:01:18;;;;;;;3.17;0.80;;;;;;;21.34;41.48;99944.03;5096173;28;20085;-63
2023/12/24 10:03:44;;;;;;;2.08;1.20;;;;;;;21.34;41.43;99950.16;5009240;28;20044;-63
2023/12/24 10:06:10;;;;;;;1.52;0.93;;;;;;;21.30;41.30;99942.84;5081053;28;20040;-64
2023/12/24 10:08:36;;;;;;;1.25;0.80;;;;;;;21.33;41.28;99937.13;5051703;28;20048;-63
2023/12/24 10:11:15;;;;;;;0.68;0.55;;;;;;;21.34;41.17;99939.56;5059793;28;20036;-63
2023/12/24 10:13:41;;;;;;;0.57;0.40;;;;;;;21.35;41.02;99948.31;5030098;28;20048;-63
2023/12/24 10:16:09;;;;;;;1.30;0.77;;;;;;;21.36;41.16;99948.13;5075118;28;20031;-63
2023/12/24 10:18:35;;;;;;;1.02;0.90;;;;;;;21.41;41.31;99937.69;5048145;28;20055;-63
2023/12/24 10:21:08;;;;;;;2.38;0.85;;;;;;;21.48;41.09;99934.19;5061200;28;20085;-64
2023/12/24 10:23:34;;;;;;;2.55;0.90;;;;;;;21.49;41.02;99938.47;5046613;28;20036;-63
2023/12/24 10:26:05;;;;;;;1.60;0.93;;;;;;;21.44;41.15;99928.50;5061235;28;20044;-62
2023/12/24 10:28:32;;;;;;;1.58;0.80;;;;;;;21.46;41.02;99949.50;5056209;28;20093;-62
2023/12/24 10:31:08;;;;;;;1.95;0.85;;;;;;;21.41;41.02;99936.88;5053443;28;20117;-64
2023/12/24 10:33:37;;;;;;;1.85;0.95;;;;;;;21.30;41.02;99911.88;5051941;28;20417;-62
2023/12/24 10:36:04;;;;;;;1.08;0.63;;;;;;;21.39;41.46;99923.88;5062819;28;20048;-64
2023/12/24 10:38:30;;;;;;;2.22;1.42;;;;;;;21.47;41.37;99936.03;5061388;28;20379;-62
2023/12/24 10:40:56;;;;;;;0.77;0.73;;;;;;;21.46;41.33;99923.00;5051870;28;20039;-64
2023/12/24 10:43:22;;;;;;;2.28;1.10;;;;;;;21.45;41.26;99931.97;5063848;28;20032;-64
2023/12/24 10:45:48;;;;;;;1.88;0.65;;;;;;;21.44;41.07;99920.56;5077784;28;20116;-63
2023/12/24 10:48:13;;;;;;;1.98;1.10;;;;;;;21.42;41.15;99914.69;5023562;28;20055;-63
2023/12/24 10:50:39;;;;;;;1.42;0.77;;;;;;;21.36;41.32;99900.47;5078579;28;20039;-63
2023/12/24 10:53:05;;;;;;;1.73;1.00;;;;;;;21.42;41.33;99909.38;5024650;28;20442;-62
2023/12/24 10:55:33;;;;;;;2.15;0.90;;;;;;;21.47;41.21;99898.13;5081998;28;20053;-62
2023/12/24 10:58:09;;;;;;;0.73;0.70;;;;;;;21.46;41.47;99888.56;5022918;28;20044;-63
2023/12/24 11:00:35;;;;;;;1.25;0.70;;;;;;;21.58;41.21;99889.53;5078714;28;20511;-62
2023/12/24 11:03:00;;;;;;;1.52;1.17;;;;;;;21.64;40.70;99899.25;5024056;28;20048;-64
2023/12/24 11:05:48;;;;;;;2.22;1.23;;;;;;;21.63;40.91;99900.28;5076441;28;20635;-63
2023/12/24 11:08:22;;;;;;;2.65;1.20;;;;;;;21.63;41.24;99895.81;5026173;28;20643;-64
2023/12/24 11:11:06;;;;;;;0.82;0.80;;;;;;;21.57;41.22;99879.97;5078695;28;20119;-63
2023/12/24 11:13:32;;;;;;;2.10;1.00;;;;;;;21.57;41.25;99877.31;5068242;28;20098;-63
2023/12/24 11:16:05;;;;;;;1.85;0.93;;;;;;;21.54;41.49;99875.06;5034591;28;20036;-63
2023/12/24 11:18:45;;;;;;;2.17;1.00;;;;;;;21.48;40.96;99878.56;5069206;28;20071;-63
2023/12/24 11:21:12;;;;;;;1.30;1.00;;;;;;;21.53;41.01;99891.97;5073091;28;20044;-64
2023/12/24 11:23:42;;;;;;;2.13;1.10;;;;;;;21.53;41.14;99897.28;5049082;28;20032;-64
2023/12/24 11:26:31;;;;;;;1.85;1.02;;;;;;;21.53;41.16;99894.63;5076758;27;20047;-62